Time;durP1;ratioP1;P1;durP2;ratioP2;P2;SDS_P1;SDS_P2;PMS_P1;PMS_P2;Temp;Humidity;BMP_temperature;BMP_pressure;BME280_temperature;BME280_humidity;BME280_pressure;Samples;Min_cycle;Max_cycle;Signal;HPM_P1;HPM_P2
2023/01/03 00:01:51;;;;;;;18.92;11.45;;;;;;;4.47;82.07;102236.19;5030788;28;20026;-80
2023/01/03 00:04:16;;;;;;;17.08;7.97;;;;;;;4.50;82.04;102252.44;5013997;28;20021;-81
2023/01/03 00:06:44;;;;;;;12.73;8.02;;;;;;;4.46;82.00;102250.72;4997709;28;20029;-80
2023/01/03 00:09:13;;;;;;;14.25;7.50;;;;;;;4.42;81.86;102243.00;4997696;28;20471;-80
2023/01/03 00:14:27;;;;;;;15.73;9.93;;;;;;;4.19;82.30;102210.50;5016292;28;20032;-80
2023/01/03 00:16:55;;;;;;;17.83;9.93;;;;;;;4.38;82.61;102246.44;5014287;28;20065;-80
2023/01/03 00:19:21;;;;;;;15.60;9.77;;;;;;;4.32;82.22;102242.97;4997037;28;20053;-80
2023/01/03 00:21:47;;;;;;;14.70;10.85;;;;;;;4.32;82.11;102242.97;5013030;28;20802;-80
2023/01/03 00:24:13;;;;;;;20.45;9.05;;;;;;;4.28;82.15;102243.84;5012980;28;20030;-80
2023/01/03 00:26:39;;;;;;;11.95;7.68;;;;;;;4.28;81.92;102246.41;5029032;28;20076;-80
2023/01/03 00:29:05;;;;;;;14.75;7.95;;;;;;;4.13;82.47;102233.56;5013019;28;20116;-80
2023/01/03 00:31:30;;;;;;;20.40;6.85;;;;;;;4.16;82.35;102238.69;5012489;28;20056;-80
2023/01/03 00:33:56;;;;;;;15.07;10.18;;;;;;;4.19;82.13;102250.63;5029081;28;20049;-80
2023/01/03 00:36:21;;;;;;;13.20;8.07;;;;;;;4.13;82.02;102235.25;5029166;28;20049;-81
2023/01/03 00:38:47;;;;;;;21.83;9.05;;;;;;;4.18;82.46;102242.09;5045702;28;20025;-81
2023/01/03 00:41:15;;;;;;;11.23;7.45;;;;;;;4.12;82.88;102234.38;5012723;28;20422;-80
2023/01/03 00:43:41;;;;;;;18.48;7.65;;;;;;;4.07;82.91;102236.09;5012491;28;20026;-80
2023/01/03 00:46:08;;;;;;;16.38;10.43;;;;;;;4.12;82.64;102249.75;4996188;28;20059;-80
2023/01/03 00:48:33;;;;;;;14.90;9.05;;;;;;;4.05;82.62;102248.03;5028961;28;20053;-80
2023/01/03 00:51:13;;;;;;;12.48;8.90;;;;;;;3.95;82.72;102228.38;5012797;28;20376;-80
2023/01/03 00:53:39;;;;;;;22.77;12.13;;;;;;;4.03;82.38;102239.47;5028922;28;20067;-80
2023/01/03 00:56:06;;;;;;;20.17;11.13;;;;;;;4.09;82.64;102247.19;5028894;28;20069;-80
2023/01/03 00:58:32;;;;;;;18.88;8.80;;;;;;;4.03;83.27;102242.03;5012469;28;20025;-80
2023/01/03 01:01:06;;;;;;;17.27;10.50;;;;;;;4.11;82.86;102237.81;4995993;28;20025;-80
2023/01/03 01:03:31;;;;;;;16.30;10.25;;;;;;;4.11;82.73;102232.69;5012678;28;20029;-80
2023/01/03 01:05:57;;;;;;;11.05;9.35;;;;;;;4.11;82.36;102236.94;5012071;28;20127;-80
2023/01/03 01:08:22;;;;;;;10.77;8.18;;;;;;;3.78;82.40;102191.59;5011374;28;20030;-80
2023/01/03 01:11:03;;;;;;;12.77;8.32;;;;;;;3.89;82.24;102215.53;5011601;28;20441;-80
2023/01/03 01:13:32;;;;;;;19.33;10.80;;;;;;;3.96;82.42;102217.28;5028739;28;20514;-81
2023/01/03 01:16:11;;;;;;;22.77;11.57;;;;;;;3.81;82.78;102199.28;5012450;28;20029;-81
2023/01/03 01:18:37;;;;;;;16.13;9.38;;;;;;;3.94;82.66;102219.84;4971343;28;1169017;-82
2023/01/03 01:21:07;;;;;;;25.83;12.63;;;;;;;3.88;82.59;102219.78;5013050;28;20037;-80
2023/01/03 01:23:34;;;;;;;16.77;10.10;;;;;;;3.94;82.72;102224.09;5013315;28;20163;-80
2023/01/03 01:26:00;;;;;;;33.53;12.25;;;;;;;3.82;83.16;102204.41;4996573;28;20052;-80
2023/01/03 01:28:26;;;;;;;18.17;12.82;;;;;;;3.88;82.78;102213.81;5029049;28;20441;-80
2023/01/03 01:30:51;;;;;;;18.35;10.23;;;;;;;3.92;82.45;102215.53;5012894;28;20080;-80
2023/01/03 01:33:17;;;;;;;19.75;11.55;;;;;;;3.81;82.27;102196.72;4996437;28;20029;-81
2023/01/03 01:35:42;;;;;;;18.13;11.68;;;;;;;3.76;83.12;102203.53;5029604;28;20033;-80
2023/01/03 01:38:08;;;;;;;17.83;12.73;;;;;;;3.86;83.73;102212.97;4996102;28;20183;-80
2023/01/03 01:40:33;;;;;;;18.65;11.73;;;;;;;3.72;83.37;102206.06;5029231;28;20108;-80
2023/01/03 01:45:50;;;;;;;13.93;9.95;;;;;;;3.84;83.09;102219.78;5015852;28;20513;-80
2023/01/03 01:48:16;;;;;;;23.65;11.95;;;;;;;3.76;83.10;102209.50;4996033;28;20034;-81
2023/01/03 01:50:44;;;;;;;22.55;12.65;;;;;;;3.81;83.14;102205.25;4996424;28;20120;-81
2023/01/03 01:53:22;;;;;;;26.58;14.88;;;;;;;3.72;83.26;102190.72;5028801;28;20144;-80
2023/01/03 01:55:55;;;;;;;29.50;14.00;;;;;;;3.82;83.03;102213.78;5013506;28;20137;-80
2023/01/03 01:58:22;;;;;;;18.70;12.13;;;;;;;3.83;82.79;102215.50;5029013;28;20506;-80
2023/01/03 02:00:47;;;;;;;19.02;11.35;;;;;;;3.72;82.69;102203.50;5012521;28;20037;-80
2023/01/03 02:03:13;;;;;;;17.27;10.55;;;;;;;3.72;82.05;102198.38;5028850;28;20026;-80
2023/01/03 02:05:41;;;;;;;19.60;10.40;;;;;;;3.65;81.89;102196.66;4996084;28;20053;-80
2023/01/03 02:08:07;;;;;;;20.63;13.68;;;;;;;3.64;81.85;102204.34;5012417;28;20030;-80
2023/01/03 02:10:41;;;;;;;21.90;11.63;;;;;;;3.64;81.87;102200.06;4996196;28;20514;-80
2023/01/03 02:13:37;;;;;;;21.92;11.88;;;;;;;3.61;81.79;102209.44;5029721;28;20025;-80
2023/01/03 02:16:11;;;;;;;30.35;14.30;;;;;;;3.45;81.99;102182.91;5011923;28;20048;-80
2023/01/03 02:18:53;;;;;;;21.73;12.43;;;;;;;3.46;81.88;102182.06;5014145;28;20095;-80
2023/01/03 02:21:46;;;;;;;16.42;11.13;;;;;;;3.48;81.88;102200.84;5000515;28;20030;-80
2023/01/03 02:24:27;;;;;;;24.35;14.35;;;;;;;3.49;81.44;102194.88;5033177;28;20407;-81
2023/01/03 02:27:13;;;;;;;19.92;9.52;;;;;;;3.35;81.49;102176.91;5033515;28;20033;-81
2023/01/03 02:29:47;;;;;;;14.02;9.80;;;;;;;3.43;81.27;102205.06;5033134;28;20030;-80
2023/01/03 02:32:21;;;;;;;20.00;10.02;;;;;;;3.38;80.68;102199.06;5033450;28;20087;-81
2023/01/03 02:35:17;;;;;;;20.73;9.82;;;;;;;3.37;80.18;102205.91;4999572;28;20439;-80
2023/01/03 02:37:49;;;;;;;10.05;8.30;;;;;;;3.29;79.62;102206.69;5040790;28;20033;-81
2023/01/03 02:40:38;;;;;;;10.43;8.23;;;;;;;3.24;79.62;102198.13;5015481;28;20029;-81
2023/01/03 02:43:18;;;;;;;14.60;9.50;;;;;;;3.19;79.92;102205.78;5031996;28;20025;-80
2023/01/03 02:45:51;;;;;;;18.98;12.07;;;;;;;3.05;79.87;102182.69;5032885;28;20030;-80
2023/01/03 02:48:35;;;;;;;;;;;;;;;3.10;81.04;102206.56;5032318;28;20033;-81
2023/01/03 02:51:02;;;;;;;20.05;9.52;;;;;;;2.94;81.48;102197.06;5032524;28;19913;-80
2023/01/03 02:53:30;;;;;;;16.25;11.80;;;;;;;2.82;81.87;102195.28;5015094;28;20052;-80
2023/01/03 02:55:57;;;;;;;14.38;10.52;;;;;;;2.88;81.94;102205.56;5015508;28;20036;-80
2023/01/03 02:58:24;;;;;;;21.35;12.80;;;;;;;2.89;82.17;102201.28;4998974;28;20056;-80
2023/01/03 03:00:51;;;;;;;24.30;14.23;;;;;;;2.83;81.66;102185.91;5015252;28;20491;-80
2023/01/03 03:03:20;;;;;;;22.10;9.88;;;;;;;2.79;81.82;102194.41;5015586;28;20033;-80
2023/01/03 03:06:28;;;;;;;29.00;11.05;;;;;;;2.76;82.00;102194.38;5014809;28;20572;-80
2023/01/03 03:08:54;;;;;;;15.60;10.98;;;;;;;2.82;81.92;102199.53;5017519;28;20034;-83
2023/01/03 03:14:13;;;;;;;18.48;9.10;;;;;;;2.43;81.95;102154.91;5017356;28;20125;-80
2023/01/03 03:16:46;;;;;;;21.98;13.40;;;;;;;2.61;81.87;102197.66;5015644;28;20034;-80
2023/01/03 03:24:48;;;;;;;12.95;9.30;;;;;;;2.54;81.99;102186.50;4999079;28;20583;-81
2023/01/03 03:24:55;;;;;;;20.27;11.63;;;;;;;2.38;82.24;102160.84;5017773;28;20040;-80
2023/01/03 03:30:08;;;;;;;14.00;9.70;;;;;;;2.49;82.76;102169.44;5016073;28;20043;-81
2023/01/03 03:32:33;;;;;;;15.98;9.90;;;;;;;2.68;82.83;102201.13;5014656;28;20034;-80
2023/01/03 03:34:59;;;;;;;18.15;11.82;;;;;;;2.57;83.20;102194.22;4997936;28;20037;-80
2023/01/03 03:37:25;;;;;;;15.88;10.10;;;;;;;2.60;83.25;102193.38;5014565;28;20029;-80
2023/01/03 03:45:50;;;;;;;13.88;10.57;;;;;;;2.51;83.31;102199.25;5030743;28;20125;-80
2023/01/03 03:48:18;;;;;;;19.38;11.10;;;;;;;2.51;83.35;102201.81;4998290;28;20083;-80
2023/01/03 03:50:45;;;;;;;26.15;14.45;;;;;;;2.34;83.42;102180.34;5031637;28;20025;-81
2023/01/03 03:53:10;;;;;;;16.55;12.38;;;;;;;2.38;83.62;102187.22;5030586;28;20026;-80
2023/01/03 03:55:42;;;;;;;21.98;13.05;;;;;;;2.48;83.10;102206.06;4997778;28;20026;-80
2023/01/03 03:58:17;;;;;;;13.25;9.20;;;;;;;2.49;83.00;102200.09;5014799;28;20147;-79
2023/01/03 04:00:42;;;;;;;16.23;10.90;;;;;;;2.51;83.61;102209.47;4998130;28;20033;-80
2023/01/03 04:03:08;;;;;;;15.15;10.35;;;;;;;2.72;82.99;102215.63;5014055;28;20045;-79
2023/01/03 04:05:36;;;;;;;15.15;10.68;;;;;;;2.72;82.57;102197.75;5014007;28;20591;-80
2023/01/03 04:08:02;;;;;;;16.25;11.00;;;;;;;2.86;81.93;102203.84;4997728;28;20036;-80
2023/01/03 04:10:27;;;;;;;22.60;11.13;;;;;;;2.80;81.87;102206.34;5014201;28;20025;-79
2023/01/03 04:12:53;;;;;;;26.30;12.60;;;;;;;2.85;81.54;102194.44;5030240;28;20395;-80
2023/01/03 04:15:18;;;;;;;16.35;10.20;;;;;;;2.75;81.30;102182.41;5030098;28;20120;-80
2023/01/03 04:17:44;;;;;;;16.25;10.50;;;;;;;2.83;80.80;102170.56;5046261;28;20021;-79
2023/01/03 04:20:10;;;;;;;16.48;10.07;;;;;;;2.92;80.59;102191.09;5029793;28;20507;-80
2023/01/03 04:22:35;;;;;;;18.88;10.52;;;;;;;3.03;81.00;102214.16;5014042;28;20069;-80
2023/01/03 04:25:01;;;;;;;18.67;11.52;;;;;;;3.01;80.97;102215.88;5029928;28;20499;-80
2023/01/03 04:27:27;;;;;;;16.55;10.77;;;;;;;2.94;80.59;102194.50;5053390;28;20025;-79
2023/01/03 04:29:52;;;;;;;22.55;12.65;;;;;;;2.90;80.38;102192.78;5032485;28;20509;-81
2023/01/03 04:32:18;;;;;;;22.58;9.82;;;;;;;3.08;80.93;102218.50;5032696;28;20029;-80
2023/01/03 04:34:43;;;;;;;17.80;12.15;;;;;;;3.09;81.20;102217.63;5032984;28;20029;-80
2023/01/03 04:37:09;;;;;;;18.52;12.30;;;;;;;3.00;81.32;102215.00;5033310;28;20114;-83
2023/01/03 04:39:34;;;;;;;20.42;11.00;;;;;;;2.94;81.59;102209.84;5049490;28;20033;-81
2023/01/03 04:42:00;;;;;;;15.48;11.68;;;;;;;2.88;81.74;102204.69;5050717;28;20044;-81
2023/01/03 04:44:26;;;;;;;14.80;10.68;;;;;;;2.95;81.65;102213.25;5049768;28;20032;-81
2023/01/03 04:46:52;;;;;;;20.15;11.60;;;;;;;2.85;82.11;102205.53;5032990;28;20108;-82
2023/01/03 04:49:17;;;;;;;17.00;12.18;;;;;;;2.83;81.91;102193.56;5032753;28;20163;-81
2023/01/03 04:51:43;;;;;;;13.68;10.70;;;;;;;2.70;82.30;102179.00;5032954;28;20033;-82
2023/01/03 04:54:08;;;;;;;11.93;9.73;;;;;;;2.79;82.48;102202.06;5049560;28;20044;-81
2023/01/03 04:56:35;;;;;;;17.88;12.98;;;;;;;2.93;82.57;102233.69;5049198;28;20493;-81
2023/01/03 04:59:01;;;;;;;18.17;11.55;;;;;;;2.93;82.25;102236.25;5016559;28;20108;-81
2023/01/03 05:01:26;;;;;;;28.50;14.07;;;;;;;2.86;82.17;102232.81;5031368;28;20024;-81
2023/01/03 05:03:56;;;;;;;15.18;11.40;;;;;;;2.88;82.71;102243.03;5032939;28;20033;-81
2023/01/03 05:06:21;;;;;;;17.38;13.13;;;;;;;2.75;82.64;102229.31;5033027;28;20028;-81
2023/01/03 05:08:47;;;;;;;21.42;12.60;;;;;;;2.93;82.55;102260.97;5032482;28;20036;-81
2023/01/03 05:11:12;;;;;;;29.92;15.18;;;;;;;2.86;82.05;102244.75;5027974;28;20096;-80
2023/01/03 05:13:38;;;;;;;18.10;13.95;;;;;;;2.66;81.92;102207.94;5018429;28;20037;-81
2023/01/03 05:16:11;;;;;;;25.30;14.20;;;;;;;2.84;81.92;102241.28;5065468;28;20517;-79
2023/01/03 05:18:36;;;;;;;;;;;;;;;2.86;81.44;102252.41;5049287;28;20102;-76
2023/01/03 05:26:42;;;;;;;23.38;14.55;;;;;;;2.66;82.18;102239.44;5049710;28;20051;-82
2023/01/03 05:29:08;;;;;;;18.27;14.07;;;;;;;2.67;82.45;102247.97;5032720;28;20482;-86
2023/01/03 05:31:33;;;;;;;32.67;19.30;;;;;;;2.67;82.45;102245.41;5030059;28;20664;-83
2023/01/03 05:33:59;;;;;;;24.15;16.10;;;;;;;2.57;82.46;102235.09;5045268;28;20509;-79
2023/01/03 05:36:25;;;;;;;24.08;16.35;;;;;;;2.70;82.71;102250.53;5047044;28;20067;-86
2023/01/03 05:38:50;;;;;;;33.58;16.70;;;;;;;2.67;82.14;102255.63;5029953;28;20505;-81
2023/01/03 05:41:58;;;;;;;35.03;17.77;;;;;;;2.67;82.57;102255.63;5045765;28;20490;-80
2023/01/03 05:44:01;;;;;;;52.13;30.17;;;;;;;2.62;82.31;102247.06;5033231;28;20033;-81
2023/01/03 05:46:26;;;;;;;28.50;17.75;;;;;;;2.66;82.68;102252.22;5049301;28;20400;-81
2023/01/03 05:48:52;;;;;;;35.17;19.40;;;;;;;2.61;82.17;102247.91;5047245;28;20025;-88
2023/01/03 05:51:18;;;;;;;37.10;21.08;;;;;;;2.65;81.68;102249.63;5030121;28;20033;-86
2023/01/03 05:53:43;;;;;;;28.25;20.83;;;;;;;2.37;82.32;102207.66;5028344;28;20464;-78
2023/01/03 05:56:09;;;;;;;24.42;16.98;;;;;;;2.64;82.32;102255.59;5047857;28;20028;-85
2023/01/03 05:58:35;;;;;;;31.85;18.48;;;;;;;2.57;82.03;102242.78;5046961;28;20033;-84
2023/01/03 06:01:07;;;;;;;36.83;20.00;;;;;;;2.63;81.45;102244.50;5049593;28;20110;-83
2023/01/03 06:03:33;;;;;;;39.90;23.63;;;;;;;2.61;81.29;102237.69;5035283;28;20093;-82
2023/01/03 06:06:02;;;;;;;37.92;21.23;;;;;;;2.48;82.25;102227.34;5033008;28;20453;-82
2023/01/03 06:08:27;;;;;;;33.15;20.70;;;;;;;2.71;82.31;102257.38;5034715;28;20153;-79
2023/01/03 06:10:53;;;;;;;37.35;20.70;;;;;;;2.58;81.77;102231.69;5052055;28;20475;-78
2023/01/03 06:13:20;;;;;;;35.72;19.75;;;;;;;2.73;81.34;102256.53;5051837;28;20052;-80
2023/01/03 06:17:53;;;;;;;24.83;17.85;;;;;;;2.66;81.95;102253.94;5050384;28;20106;-80
2023/01/03 06:18:33;;;;;;;22.48;18.08;;;;;;;2.66;81.33;102249.66;5050060;28;20037;-88
2023/01/03 06:20:58;;;;;;;22.20;16.90;;;;;;;2.72;81.07;102265.03;5033237;28;20037;-87
2023/01/03 06:23:24;;;;;;;27.92;18.70;;;;;;;2.50;80.39;102225.66;5047384;28;20387;-79
2023/01/03 06:25:49;;;;;;;36.15;17.90;;;;;;;2.71;80.84;102272.69;5052122;28;20033;-86
2023/01/03 06:28:15;;;;;;;22.60;19.92;;;;;;;2.66;80.47;102254.78;5031300;28;20036;-82
2023/01/03 06:30:41;;;;;;;30.50;19.05;;;;;;;2.65;79.94;102250.47;5055483;28;20071;-83
2023/01/03 06:33:06;;;;;;;28.48;20.20;;;;;;;2.72;79.81;102264.19;5052467;28;20029;-80
2023/01/03 06:35:32;;;;;;;28.58;17.65;;;;;;;2.72;80.55;102269.28;5035045;28;20032;-86
2023/01/03 06:37:58;;;;;;;36.50;22.92;;;;;;;2.79;79.90;102277.03;5017931;28;20111;-82
2023/01/03 06:40:23;;;;;;;35.63;23.90;;;;;;;2.76;80.11;102271.91;5051562;28;20067;-78
2023/01/03 06:42:49;;;;;;;33.00;20.40;;;;;;;2.76;80.05;102271.06;5046415;28;20048;-80
2023/01/03 06:53:36;;;;;;;38.80;23.13;;;;;;;2.86;81.09;102277.97;5044299;28;20509;-83
2023/01/03 06:56:02;;;;;;;30.70;23.98;;;;;;;3.03;80.59;102285.75;5032498;28;20051;-78
2023/01/03 06:58:27;;;;;;;34.08;21.73;;;;;;;3.00;79.92;102280.63;5021958;28;21154;-80
2023/01/03 07:00:53;;;;;;;30.50;21.58;;;;;;;2.91;80.33;102253.28;5015609;28;20482;-80
2023/01/03 07:03:18;;;;;;;33.88;20.85;;;;;;;3.30;80.65;102285.13;5033073;28;20045;-91
2023/01/03 07:05:44;;;;;;;27.80;19.73;;;;;;;3.52;80.80;102271.63;5016608;28;20044;-86
2023/01/03 07:08:09;;;;;;;35.83;22.35;;;;;;;3.53;79.88;102268.22;5050253;28;20028;-77
2023/01/03 07:10:35;;;;;;;29.02;19.63;;;;;;;3.57;81.19;102280.22;5029442;28;20025;-80
2023/01/03 07:15:44;;;;;;;31.23;21.17;;;;;;;3.78;81.60;102273.50;5063121;28;20044;-92
2023/01/03 07:18:10;;;;;;;31.10;19.80;;;;;;;3.92;81.74;102274.44;5016139;28;20036;-78
2023/01/03 07:20:40;;;;;;;29.73;18.02;;;;;;;3.89;82.11;102262.47;5046698;28;20477;-79
2023/01/03 07:23:05;;;;;;;30.65;16.95;;;;;;;3.98;81.68;102275.31;5047754;28;20029;-88
2023/01/03 07:25:31;;;;;;;27.35;14.75;;;;;;;4.08;82.32;102283.91;5029857;28;20387;-89
2023/01/03 07:27:56;;;;;;;24.52;16.05;;;;;;;4.19;82.66;102287.34;5046676;28;20021;-91
2023/01/03 07:30:22;;;;;;;24.85;15.93;;;;;;;4.16;82.85;102276.25;5027919;28;20029;-79
2023/01/03 07:32:47;;;;;;;36.78;19.75;;;;;;;4.23;82.68;102288.25;5036808;28;20029;-88
2023/01/03 07:35:13;;;;;;;31.35;20.77;;;;;;;4.37;82.87;102296.81;5044842;28;20534;-91
2023/01/03 07:37:38;;;;;;;40.97;23.83;;;;;;;4.29;83.59;102273.72;5010948;28;20041;-82
2023/01/03 07:40:04;;;;;;;36.38;23.95;;;;;;;4.68;83.50;102290.06;5048014;28;20068;-79
2023/01/03 07:45:14;;;;;;;61.92;25.15;;;;;;;4.80;83.08;102241.34;5042694;28;20124;-81
2023/01/03 07:47:44;;;;;;;38.78;20.48;;;;;;;5.30;82.39;102291.81;5048738;28;20461;-92
2023/01/03 07:50:09;;;;;;;29.98;17.98;;;;;;;5.58;81.88;102291.78;5029355;28;20036;-81
2023/01/03 07:52:35;;;;;;;23.20;15.65;;;;;;;5.96;81.39;102282.31;5049915;28;20029;-79
2023/01/03 07:55:00;;;;;;;18.02;11.05;;;;;;;6.67;80.02;102310.25;5047596;28;20036;-83
2023/01/03 07:57:26;;;;;;;13.82;8.23;;;;;;;7.32;77.97;102311.50;5065464;28;20114;-80
2023/01/03 07:59:52;;;;;;;9.20;5.85;;;;;;;7.92;75.19;102310.03;5035102;28;20028;-85
2023/01/03 08:02:19;;;;;;;10.43;5.38;;;;;;;8.23;73.17;102289.91;5026769;28;20123;-81
2023/01/03 08:04:44;;;;;;;7.30;4.90;;;;;;;8.85;71.35;102308.88;5049541;28;20025;-77
2023/01/03 08:07:10;;;;;;;4.75;3.92;;;;;;;9.24;70.07;102311.69;5049329;28;20409;-85
2023/01/03 08:15:04;;;;;;;11.00;6.40;;;;;;;10.33;65.86;102310.56;5050205;28;20032;-92
2023/01/03 08:17:29;;;;;;;8.00;4.82;;;;;;;10.56;65.05;102310.03;5010008;28;20175;-84
2023/01/03 08:19:55;;;;;;;7.95;6.15;;;;;;;10.80;64.38;102314.66;5039766;28;20128;-88
2023/01/03 08:22:20;;;;;;;15.27;6.75;;;;;;;10.95;64.03;102304.84;5028830;28;20454;-86
2023/01/03 08:24:46;;;;;;;10.18;6.22;;;;;;;11.14;62.62;102325.09;5030926;28;20025;-86
2023/01/03 08:27:11;;;;;;;6.65;3.75;;;;;;;11.36;61.44;102324.56;5047552;28;20044;-91
2023/01/03 08:29:37;;;;;;;11.93;4.13;;;;;;;11.49;61.21;102321.59;5014227;28;20071;-79
2023/01/03 08:32:02;;;;;;;18.77;4.22;;;;;;;11.69;60.43;102333.19;5046132;28;20510;-83
2023/01/03 08:34:30;;;;;;;15.15;5.82;;;;;;;11.71;60.23;102327.09;5039597;28;20053;-83
2023/01/03 08:36:59;;;;;;;7.10;3.88;;;;;;;11.70;59.54;102320.22;5011840;28;20487;-87
2023/01/03 08:39:26;;;;;;;7.53;4.63;;;;;;;11.89;60.12;102330.09;5030466;28;20178;-92
2023/01/03 08:41:56;;;;;;;7.45;4.15;;;;;;;11.92;59.19;102328.28;5030660;28;20025;-88
2023/01/03 08:44:21;;;;;;;5.63;3.65;;;;;;;12.08;58.27;102320.91;5029655;28;20025;-86
2023/01/03 08:46:48;;;;;;;7.25;3.50;;;;;;;12.15;57.92;102325.03;5031457;28;20498;-91
2023/01/03 08:49:14;;;;;;;6.10;3.55;;;;;;;12.27;57.98;102324.69;5031606;28;20097;-87
2023/01/03 08:51:39;;;;;;;31.65;4.10;;;;;;;12.34;57.12;102312.38;5045194;28;20029;-88
2023/01/03 08:54:05;;;;;;;10.05;5.18;;;;;;;12.53;57.15;102315.28;5036325;28;20453;-87
2023/01/03 08:56:30;;;;;;;7.15;4.05;;;;;;;12.45;56.82;102275.72;5034191;28;20029;-87
2023/01/03 08:58:56;;;;;;;5.25;3.05;;;;;;;12.89;55.19;102300.31;5048056;28;20020;-82
2023/01/03 09:01:23;;;;;;;10.73;4.00;;;;;;;12.97;54.94;102303.50;5048194;28;20487;-81
2023/01/03 09:03:49;;;;;;;9.38;4.53;;;;;;;13.03;54.16;102281.69;5045760;28;20086;-82
2023/01/03 09:06:14;;;;;;;10.48;2.72;;;;;;;13.24;53.51;102311.31;5043209;28;20033;-91
2023/01/03 09:08:40;;;;;;;9.32;3.83;;;;;;;13.38;53.60;102303.94;5047059;28;20024;-80
2023/01/03 09:11:05;;;;;;;5.47;3.55;;;;;;;13.44;52.89;102296.75;5048519;28;20040;-81
2023/01/03 09:13:31;;;;;;;7.50;3.53;;;;;;;13.60;53.33;102291.03;5047057;28;20025;-79
2023/01/03 09:16:04;;;;;;;6.47;3.78;;;;;;;13.72;52.63;102308.81;5043139;28;20112;-80
2023/01/03 09:18:30;;;;;;;7.53;4.03;;;;;;;13.86;52.26;102298.75;5035836;28;20056;-76
2023/01/03 09:20:55;;;;;;;6.35;2.90;;;;;;;13.62;51.54;102250.22;5045932;28;20470;-82
2023/01/03 09:23:21;;;;;;;4.60;3.25;;;;;;;13.94;51.93;102288.91;5047476;28;20040;-88
2023/01/03 09:25:46;;;;;;;6.55;3.38;;;;;;;14.10;51.15;102283.16;5039808;28;20057;-88
2023/01/03 09:28:12;;;;;;;7.60;3.10;;;;;;;14.24;51.32;102280.88;5048276;28;20060;-84
2023/01/03 09:30:37;;;;;;;12.13;4.03;;;;;;;14.24;51.21;102267.84;5034931;28;20060;-86
2023/01/03 09:33:03;;;;;;;10.68;4.50;;;;;;;14.49;51.02;102276.47;5018545;28;20486;-89
2023/01/03 09:35:30;;;;;;;7.95;4.07;;;;;;;14.35;50.45;102234.44;5035478;28;20115;-78
2023/01/03 09:37:55;;;;;;;6.78;3.47;;;;;;;14.59;49.99;102261.31;5050394;28;20518;-87
2023/01/03 09:40:21;;;;;;;9.27;4.00;;;;;;;14.69;49.69;102265.25;5049133;28;20025;-81
2023/01/03 09:45:32;;;;;;;7.35;4.05;;;;;;;14.72;49.42;102235.63;5043489;28;20469;-81
2023/01/03 09:47:59;;;;;;;7.60;3.22;;;;;;;14.94;48.89;102262.47;5049341;28;20057;-80
2023/01/03 09:50:27;;;;;;;6.07;2.88;;;;;;;14.92;48.92;102256.50;5031443;28;20090;-92
2023/01/03 10:04:58;;;;;;;8.45;4.85;;;;;;;15.45;48.52;102249.03;5049862;28;20060;-79
2023/01/03 10:07:55;;;;;;;7.20;4.07;;;;;;;15.44;47.99;102229.06;5005939;28;20067;-79
2023/01/03 10:10:23;;;;;;;7.43;3.92;;;;;;;15.61;47.59;102244.00;5021345;28;20039;-81
2023/01/03 10:13:07;;;;;;;8.63;3.97;;;;;;;15.66;48.46;102238.59;5049749;28;20082;-84
2023/01/03 10:15:45;;;;;;;5.85;3.20;;;;;;;15.72;47.80;102233.06;5052065;28;20025;-88
2023/01/03 10:18:34;;;;;;;7.20;3.17;;;;;;;15.84;48.00;102232.53;5051798;28;20033;-81
2023/01/03 10:21:06;;;;;;;7.30;4.35;;;;;;;15.94;47.38;102215.53;5050501;28;20032;-81
2023/01/03 10:23:33;;;;;;;14.93;5.05;;;;;;;15.81;47.35;102195.28;5032845;28;20567;-86
2023/01/03 10:25:58;;;;;;;5.60;3.80;;;;;;;16.10;47.82;102226.09;5032279;28;20033;-86
2023/01/03 10:28:26;;;;;;;7.15;3.97;;;;;;;16.12;47.37;102202.53;5039609;28;20029;-84
2023/01/03 10:31:20;;;;;;;6.95;3.85;;;;;;;16.28;47.25;102217.41;5032202;28;20367;-86
2023/01/03 10:33:47;;;;;;;7.50;4.22;;;;;;;16.30;47.57;102210.34;5034423;28;20041;-82
2023/01/03 10:36:17;;;;;;;9.90;4.30;;;;;;;16.39;47.91;102206.44;5031618;28;20029;-82
2023/01/03 10:38:43;;;;;;;11.57;5.18;;;;;;;16.32;47.74;102192.84;5031102;28;20021;-81
2023/01/03 10:41:43;;;;;;;10.52;5.15;;;;;;;16.55;47.70;102207.41;5024148;28;20158;-83
2023/01/03 10:44:22;;;;;;;10.60;4.40;;;;;;;16.53;46.95;102190.13;5049252;28;20132;-84
2023/01/03 10:46:49;;;;;;;6.18;3.55;;;;;;;16.69;47.73;102204.13;5032035;28;20029;-79
2023/01/03 10:49:17;;;;;;;11.18;4.80;;;;;;;16.71;47.71;102204.91;5044328;28;20137;-78
2023/01/03 10:51:46;;;;;;;12.35;4.65;;;;;;;16.66;48.08;102188.59;5033596;28;20024;-79
2023/01/03 10:54:17;;;;;;;9.15;4.65;;;;;;;16.77;47.78;102181.06;5050487;28;20029;-77
2023/01/03 10:56:43;;;;;;;7.05;3.70;;;;;;;16.85;48.12;102194.63;5049992;28;20418;-86
2023/01/03 10:59:29;;;;;;;10.05;4.97;;;;;;;16.91;47.61;102201.28;5029693;28;20972;-89
2023/01/03 11:02:07;;;;;;;6.82;3.67;;;;;;;16.98;47.96;102199.22;5047054;28;20047;-85
2023/01/03 11:04:32;;;;;;;6.88;3.70;;;;;;;16.98;47.58;102183.53;5051293;28;20025;-86
2023/01/03 11:07:07;;;;;;;7.30;4.53;;;;;;;17.07;47.58;102183.06;5050128;28;20171;-88
2023/01/03 11:09:33;;;;;;;10.23;4.78;;;;;;;17.04;47.09;102172.78;5050337;28;20516;-83
2023/01/03 11:12:02;;;;;;;7.63;4.65;;;;;;;17.06;47.63;102174.38;5050172;28;20624;-82
2023/01/03 11:14:28;;;;;;;8.07;4.80;;;;;;;17.09;47.25;102166.34;5050339;28;20040;-83
2023/01/03 11:16:58;;;;;;;14.60;6.05;;;;;;;17.10;47.18;102175.03;5041656;28;20021;-81
2023/01/03 11:19:25;;;;;;;7.25;4.50;;;;;;;17.25;47.11;102182.09;5026329;28;20049;-81
2023/01/03 11:21:55;;;;;;;11.80;5.63;;;;;;;17.30;47.27;102174.00;5029950;28;20033;-81
2023/01/03 11:24:28;;;;;;;7.90;4.47;;;;;;;17.26;47.06;102162.88;5033390;28;20029;-86
2023/01/03 11:27:09;;;;;;;10.27;4.47;;;;;;;17.40;47.91;102176.09;5049706;28;20021;-81
2023/01/03 11:29:34;;;;;;;9.65;5.32;;;;;;;17.43;48.01;102173.28;5050060;28;20025;-89
2023/01/03 11:32:11;;;;;;;6.93;4.10;;;;;;;17.44;47.34;102174.97;5051124;28;20032;-87
2023/01/03 11:34:45;;;;;;;7.90;3.65;;;;;;;17.15;47.69;102128.59;5051956;28;20569;-89
2023/01/03 11:37:35;;;;;;;7.32;3.90;;;;;;;17.31;47.93;102155.66;5047014;28;20029;-86
2023/01/03 11:40:16;;;;;;;8.30;4.80;;;;;;;17.37;47.98;102155.28;5049247;28;20025;-84
2023/01/03 11:43:19;;;;;;;5.43;3.67;;;;;;;17.46;47.91;102160.03;5032951;28;20099;-83
2023/01/03 11:46:03;;;;;;;7.97;3.72;;;;;;;17.46;48.21;102149.56;5049433;28;20036;-82
2023/01/03 11:48:51;;;;;;;11.25;4.07;;;;;;;17.39;48.48;102142.13;5050622;28;20044;-84
2023/01/03 11:51:39;;;;;;;8.35;4.10;;;;;;;17.39;48.26;102122.03;5030627;28;20106;-83
2023/01/03 11:54:35;;;;;;;7.47;4.03;;;;;;;17.34;48.75;102144.16;5046628;28;20036;-87
2023/01/03 11:57:06;;;;;;;9.18;4.78;;;;;;;17.12;49.60;102113.94;5051403;28;20494;-87
2023/01/03 11:59:43;;;;;;;10.27;4.65;;;;;;;17.26;49.90;102141.94;5030946;28;20074;-87
2023/01/03 12:02:43;;;;;;;6.57;3.60;;;;;;;17.16;50.26;102141.59;5043483;28;20070;-87
2023/01/03 12:05:30;;;;;;;4.95;3.10;;;;;;;17.08;49.93;102115.00;5034665;28;20043;-82
2023/01/03 12:08:11;;;;;;;13.23;4.57;;;;;;;17.13;50.52;102127.84;5049164;28;20029;-82
2023/01/03 12:10:55;;;;;;;7.47;3.42;;;;;;;17.23;50.25;102134.28;5050592;28;20029;-85
2023/01/03 12:13:49;;;;;;;5.15;2.80;;;;;;;17.18;50.16;102123.19;5050091;28;20035;-84
2023/01/03 12:16:36;;;;;;;6.63;3.95;;;;;;;17.23;49.96;102131.66;5045816;28;20490;-83
2023/01/03 12:19:15;;;;;;;6.25;3.03;;;;;;;17.24;50.11;102137.72;5041801;28;20510;-81
2023/01/03 12:21:47;;;;;;;6.05;3.70;;;;;;;17.21;50.33;102117.81;5018044;28;20026;-80
2023/01/03 12:24:35;;;;;;;8.40;4.85;;;;;;;17.22;50.17;102134.38;5016667;28;20029;-81
2023/01/03 12:27:10;;;;;;;7.78;3.08;;;;;;;17.18;50.14;102131.03;5032800;28;20029;-81
2023/01/03 12:29:56;;;;;;;5.20;3.15;;;;;;;17.20;51.38;102122.19;5048630;28;20025;-90
2023/01/03 12:32:28;;;;;;;6.60;3.35;;;;;;;17.05;49.82;102090.78;5047732;28;20041;-82
2023/01/03 12:35:36;;;;;;;8.30;4.25;;;;;;;17.27;49.90;102134.94;5049052;28;20024;-87